Time;durP1;ratioP1;P1;durP2;ratioP2;P2;SDS_P1;SDS_P2;PMS_P1;PMS_P2;Temp;Humidity;BMP_temperature;BMP_pressure;BME280_temperature;BME280_humidity;BME280_pressure;Samples;Min_cycle;Max_cycle;Signal;HPM_P1;HPM_P2
2022/06/21 00:00:50;;;;;;;;;;;18.10;99.90;;;;;;4953007;28;20021;-73
2022/06/21 00:03:22;;;;;;;;;;;18.10;99.90;;;;;;4955288;28;19929;-73
2022/06/21 00:05:54;;;;;;;;;;;18.10;99.90;;;;;;4953420;28;19930;-72
2022/06/21 00:08:28;;;;;;;;;;;18.10;99.90;;;;;;4968341;28;19922;-73
2022/06/21 00:11:01;;;;;;;;;;;18.00;99.90;;;;;;4952709;29;19929;-73
2022/06/21 00:13:34;;;;;;;;;;;17.90;99.90;;;;;;4955062;28;20013;-73
2022/06/21 00:16:07;;;;;;;;;;;17.80;99.90;;;;;;4953937;28;20434;-73
2022/06/21 00:18:39;;;;;;;;;;;17.70;99.90;;;;;;4954517;29;19928;-73
2022/06/21 00:21:15;;;;;;;;;;;17.80;99.90;;;;;;4946912;29;19923;-74
2022/06/21 00:23:47;;;;;;;;;;;17.70;99.90;;;;;;4962103;28;19928;-73
2022/06/21 00:26:19;;;;;;;;;;;17.60;99.90;;;;;;4953586;28;19923;-73
2022/06/21 00:28:52;;;;;;;;;;;17.50;99.90;;;;;;4954805;29;19922;-73
2022/06/21 00:31:26;;;;;;;;;;;17.40;99.90;;;;;;4969566;28;19944;-72
2022/06/21 00:33:58;;;;;;;;;;;17.30;99.90;;;;;;4950837;29;19927;-73
2022/06/21 00:36:32;;;;;;;;;;;17.20;99.90;;;;;;4952503;29;19922;-72
2022/06/21 00:39:04;;;;;;;;;;;17.20;99.90;;;;;;4967356;28;19929;-73
2022/06/21 00:41:45;;;;;;;;;;;17.00;99.90;;;;;;4952743;29;20130;-72
2022/06/21 00:44:36;;;;;;;;;;;16.90;99.90;;;;;;4968485;28;19922;-73
2022/06/21 00:47:17;;;;;;;;;;;16.90;99.90;;;;;;4949747;28;20025;-72
2022/06/21 00:49:53;;;;;;;;;;;16.90;99.90;;;;;;4966547;28;20038;-74
2022/06/21 00:52:37;;;;;;;;;;;16.90;99.90;;;;;;4967028;28;19927;-73
2022/06/21 00:55:05;;;;;;;;;;;16.90;99.90;;;;;;4965207;28;19929;-74
2022/06/21 00:57:42;;;;;;;;;;;16.90;99.90;;;;;;4950648;29;20391;-72
2022/06/21 01:00:23;;;;;;;;;;;16.80;99.90;;;;;;4953780;28;19929;-73
2022/06/21 01:02:56;;;;;;;;;;;16.60;99.90;;;;;;4967390;28;19930;-73
2022/06/21 01:05:30;;;;;;;;;;;16.60;99.90;;;;;;4961409;28;19954;-75
2022/06/21 01:08:02;;;;;;;;;;;16.60;99.90;;;;;;4953007;29;20366;-73
2022/06/21 01:10:34;;;;;;;;;;;16.50;99.90;;;;;;4966209;28;19926;-72
2022/06/21 01:13:09;;;;;;;;;;;16.50;99.90;;;;;;4967038;28;20405;-73
2022/06/21 01:15:44;;;;;;;;;;;16.50;99.90;;;;;;4949757;29;19922;-74
2022/06/21 01:18:16;;;;;;;;;;;16.40;99.90;;;;;;4967441;28;19933;-73
2022/06/21 01:20:50;;;;;;;;;;;16.40;99.90;;;;;;4951912;28;19937;-72
2022/06/21 01:23:40;;;;;;;;;;;16.30;99.90;;;;;;4949302;29;19957;-73
2022/06/21 01:26:31;;;;;;;;;;;16.30;99.90;;;;;;4949880;29;19929;-74
2022/06/21 01:28:58;;;;;;;;;;;16.20;99.90;;;;;;4966976;28;19933;-73
2022/06/21 01:31:30;;;;;;;;;;;16.20;99.90;;;;;;4950421;29;19926;-73
2022/06/21 01:34:02;;;;;;;;;;;16.20;99.90;;;;;;4967587;28;20288;-71
2022/06/21 01:36:35;;;;;;;;;;;16.10;99.90;;;;;;4949135;29;19922;-70
2022/06/21 01:39:12;;;;;;;;;;;16.10;99.90;;;;;;4952922;28;19944;-71
2022/06/21 01:41:57;;;;;;;;;;;16.10;99.90;;;;;;4954133;28;19927;-71
2022/06/21 01:44:30;;;;;;;;;;;16.10;99.90;;;;;;4963515;28;20301;-71
2022/06/21 01:47:04;;;;;;;;;;;16.00;99.90;;;;;;4964330;28;19969;-71
2022/06/21 01:49:36;;;;;;;;;;;15.90;99.90;;;;;;4953381;29;19932;-71
2022/06/21 01:52:16;;;;;;;;;;;15.80;99.90;;;;;;4941046;29;19927;-71
2022/06/21 01:54:55;;;;;;;;;;;15.90;99.90;;;;;;4968123;28;20437;-71
2022/06/21 01:57:28;;;;;;;;;;;15.80;99.90;;;;;;4962461;28;19923;-71
2022/06/21 02:00:03;;;;;;;;;;;15.80;99.90;;;;;;4951350;28;19933;-70
2022/06/21 02:02:41;;;;;;;;;;;15.70;99.90;;;;;;4953483;28;19926;-71
2022/06/21 02:05:10;;;;;;;;;;;15.70;99.90;;;;;;4965864;28;19922;-71
2022/06/21 02:07:44;;;;;;;;;;;15.60;99.90;;;;;;4965593;28;19922;-72
2022/06/21 02:10:26;;;;;;;;;;;15.60;99.90;;;;;;4951355;29;19937;-71
2022/06/21 02:13:00;;;;;;;;;;;15.40;99.90;;;;;;4953291;28;20375;-71
2022/06/21 02:15:40;;;;;;;;;;;15.40;99.90;;;;;;4951834;29;20272;-71
2022/06/21 02:18:13;;;;;;;;;;;15.50;99.90;;;;;;4953134;28;19929;-71
2022/06/21 02:20:44;;;;;;;;;;;15.40;99.90;;;;;;4953105;28;19933;-70
2022/06/21 02:23:12;;;;;;;;;;;15.40;99.90;;;;;;4967906;28;19926;-71
2022/06/21 02:25:44;;;;;;;;;;;15.40;99.90;;;;;;4950631;29;19929;-71
2022/06/21 02:28:17;;;;;;;;;;;15.30;99.90;;;;;;4966772;28;19922;-71
2022/06/21 02:30:51;;;;;;;;;;;15.40;99.90;;;;;;4956791;29;19922;-71
2022/06/21 02:33:25;;;;;;;;;;;15.40;99.90;;;;;;4956692;29;19926;-71
2022/06/21 02:35:58;;;;;;;;;;;15.40;99.90;;;;;;4968706;28;19923;-70
2022/06/21 02:38:35;;;;;;;;;;;15.30;99.90;;;;;;4955351;29;19968;-72
2022/06/21 02:41:10;;;;;;;;;;;15.30;99.90;;;;;;4953761;28;19922;-71
2022/06/21 02:43:53;;;;;;;;;;;15.30;99.90;;;;;;4953009;29;20383;-70
2022/06/21 02:46:31;;;;;;;;;;;15.30;99.90;;;;;;4955756;28;19954;-71
2022/06/21 02:49:09;;;;;;;;;;;15.30;99.90;;;;;;4953446;29;19969;-71
2022/06/21 02:51:57;;;;;;;;;;;15.20;99.90;;;;;;4970073;28;19922;-71
2022/06/21 02:54:38;;;;;;;;;;;15.20;99.90;;;;;;4964722;28;19932;-71
2022/06/21 02:57:13;;;;;;;;;;;15.20;99.90;;;;;;4955306;28;19948;-71
2022/06/21 02:59:46;;;;;;;;;;;15.20;99.90;;;;;;4956106;29;19973;-71
2022/06/21 03:02:21;;;;;;;;;;;15.20;99.90;;;;;;4954015;29;20322;-72
2022/06/21 03:04:50;;;;;;;;;;;15.20;99.90;;;;;;4956390;28;20420;-71
2022/06/21 03:07:24;;;;;;;;;;;15.10;99.90;;;;;;4954551;28;19926;-75
2022/06/21 03:09:52;;;;;;;;;;;15.00;99.90;;;;;;4955134;28;19922;-73
2022/06/21 03:12:25;;;;;;;;;;;15.00;99.90;;;;;;4954379;29;19923;-73
2022/06/21 03:14:58;;;;;;;;;;;15.00;99.90;;;;;;4955477;28;19928;-74
2022/06/21 03:17:41;;;;;;;;;;;15.00;99.90;;;;;;4954384;28;20016;-73
2022/06/21 03:20:13;;;;;;;;;;;15.10;99.90;;;;;;4955849;29;20290;-73
2022/06/21 03:22:45;;;;;;;;;;;15.00;99.90;;;;;;4953426;29;19933;-75
2022/06/21 03:25:20;;;;;;;;;;;14.90;99.90;;;;;;4956006;28;19948;-74
2022/06/21 03:27:54;;;;;;;;;;;14.90;99.90;;;;;;4954343;29;19969;-74
2022/06/21 03:30:22;;;;;;;;;;;15.00;99.90;;;;;;4956011;28;20289;-73
2022/06/21 03:32:49;;;;;;;;;;;15.00;99.90;;;;;;4952541;29;19957;-73
2022/06/21 03:35:22;;;;;;;;;;;15.00;99.90;;;;;;4953479;29;19926;-73
2022/06/21 03:37:54;;;;;;;;;;;14.90;99.90;;;;;;4952044;28;19938;-74
2022/06/21 03:43:15;;;;;;;;;;;14.80;99.90;;;;;;4967041;28;20414;-74
2022/06/21 03:45:48;;;;;;;;;;;14.90;99.90;;;;;;4969781;28;19958;-73
2022/06/21 03:48:31;;;;;;;;;;;14.90;99.90;;;;;;4955672;28;19945;-73
2022/06/21 03:51:07;;;;;;;;;;;15.00;99.90;;;;;;4950109;29;19954;-74
2022/06/21 03:53:42;;;;;;;;;;;15.00;99.90;;;;;;4955591;28;20402;-73
2022/06/21 03:56:26;;;;;;;;;;;15.00;99.90;;;;;;4953705;29;19922;-73
2022/06/21 03:59:00;;;;;;;;;;;15.10;99.90;;;;;;4955105;28;19922;-73
2022/06/21 04:01:47;;;;;;;;;;;15.10;99.90;;;;;;4968062;28;19923;-73
2022/06/21 04:04:31;;;;;;;;;;;15.10;99.90;;;;;;4968514;28;20013;-73
2022/06/21 04:07:12;;;;;;;;;;;15.10;99.90;;;;;;4953517;29;19929;-73
2022/06/21 04:09:46;;;;;;;;;;;15.10;99.90;;;;;;4951733;29;20384;-73
2022/06/21 04:12:16;;;;;;;;;;;15.10;99.90;;;;;;4968210;28;19931;-73
2022/06/21 04:15:11;;;;;;;;;;;15.10;99.90;;;;;;4953975;28;20021;-74
2022/06/21 04:18:03;;;;;;;;;;;15.10;99.90;;;;;;4949944;29;19944;-73
2022/06/21 04:20:34;;;;;;;;;;;15.10;99.90;;;;;;4952738;29;19972;-73
2022/06/21 04:23:10;;;;;;;;;;;15.10;99.90;;;;;;4954390;28;20316;-73
2022/06/21 04:26:03;;;;;;;;;;;15.10;99.90;;;;;;4953751;28;19938;-73
2022/06/21 04:28:55;;;;;;;;;;;15.10;99.90;;;;;;4953722;29;19926;-72
2022/06/21 04:31:28;;;;;;;;;;;15.20;99.90;;;;;;4953198;29;19922;-73
2022/06/21 04:34:20;;;;;;;;;;;15.20;99.90;;;;;;4954197;28;20303;-73
2022/06/21 04:36:56;;;;;;;;;;;15.30;99.90;;;;;;4951810;29;19933;-72
2022/06/21 04:39:31;;;;;;;;;;;15.40;99.90;;;;;;4950176;28;19926;-73
2022/06/21 04:42:11;;;;;;;;;;;15.60;99.90;;;;;;4951875;29;19922;-73
2022/06/21 04:45:09;;;;;;;;;;;15.60;99.90;;;;;;4960713;28;19922;-73
2022/06/21 04:47:44;;;;;;;;;;;15.60;99.90;;;;;;4938654;28;19923;-72
2022/06/21 04:50:23;;;;;;;;;;;15.70;99.90;;;;;;4948886;28;19926;-73
2022/06/21 04:53:15;;;;;;;;;;;15.80;99.90;;;;;;4947417;28;19922;-73
2022/06/21 04:55:47;;;;;;;;;;;15.80;99.90;;;;;;4942538;29;19927;-70
2022/06/21 04:58:18;;;;;;;;;;;15.90;99.90;;;;;;4943280;29;19926;-70
2022/06/21 05:00:51;;;;;;;;;;;15.90;99.90;;;;;;4973101;28;19922;-70
2022/06/21 05:03:29;;;;;;;;;;;16.00;99.90;;;;;;4946300;29;20433;-70
2022/06/21 05:06:01;;;;;;;;;;;16.10;99.90;;;;;;4964207;28;19922;-70
2022/06/21 05:08:33;;;;;;;;;;;16.20;99.90;;;;;;4966548;28;19934;-70
2022/06/21 05:11:04;;;;;;;;;;;16.20;99.90;;;;;;4958343;28;19926;-71
2022/06/21 05:13:41;;;;;;;;;;;16.30;99.90;;;;;;4958867;28;19927;-70
2022/06/21 05:16:19;;;;;;;;;;;16.40;99.90;;;;;;4953125;28;19930;-69
2022/06/21 05:18:54;;;;;;;;;;;16.50;99.90;;;;;;4985062;28;19922;-70
2022/06/21 05:21:30;;;;;;;;;;;16.50;99.70;;;;;;4953644;28;20267;-70
2022/06/21 05:24:02;;;;;;;;;;;16.40;99.90;;;;;;4953944;28;20670;-70
2022/06/21 05:26:41;;;;;;;;;;;16.50;99.90;;;;;;4952854;28;19929;-70
2022/06/21 05:29:19;;;;;;;;;;;16.50;99.90;;;;;;4948703;29;20391;-71
2022/06/21 05:31:53;;;;;;;;;;;16.60;99.30;;;;;;4950228;28;19926;-70
2022/06/21 05:34:28;;;;;;;;;;;16.60;98.90;;;;;;4950384;28;19946;-70
2022/06/21 05:37:00;;;;;;;;;;;16.50;98.80;;;;;;4982009;28;19933;-69
2022/06/21 05:39:39;;;;;;;;;;;16.70;98.60;;;;;;4950770;28;19933;-71
2022/06/21 05:42:12;;;;;;;;;;;16.70;98.00;;;;;;4944305;29;19923;-70
2022/06/21 05:44:53;;;;;;;;;;;16.70;98.10;;;;;;4949713;29;20012;-69
2022/06/21 05:47:30;;;;;;;;;;;16.70;97.90;;;;;;4950769;28;19922;-70
2022/06/21 05:49:58;;;;;;;;;;;16.80;97.70;;;;;;4951993;28;19922;-70
2022/06/21 05:52:32;;;;;;;;;;;16.80;97.60;;;;;;4949175;29;19923;-70
2022/06/21 05:55:22;;;;;;;;;;;16.80;97.10;;;;;;4965989;28;19922;-70
2022/06/21 05:58:00;;;;;;;;;;;16.80;96.90;;;;;;4952871;29;19929;-69
2022/06/21 06:00:41;;;;;;;;;;;16.90;96.80;;;;;;4967294;28;19926;-70
2022/06/21 06:03:15;;;;;;;;;;;16.90;97.10;;;;;;4950643;28;20395;-71
2022/06/21 06:05:47;;;;;;;;;;;17.00;96.00;;;;;;4951553;28;19934;-70
2022/06/21 06:08:24;;;;;;;;;;;17.00;96.30;;;;;;4950526;28;19933;-69
2022/06/21 06:10:58;;;;;;;;;;;17.10;96.10;;;;;;4949793;28;19977;-70
2022/06/21 06:13:33;;;;;;;;;;;17.10;95.50;;;;;;4950091;29;20371;-71
2022/06/21 06:16:25;;;;;;;;;;;17.10;95.90;;;;;;4951044;28;19933;-70
2022/06/21 06:19:16;;;;;;;;;;;17.20;96.30;;;;;;4951428;29;19922;-71
2022/06/21 06:21:50;;;;;;;;;;;17.30;95.80;;;;;;4951430;29;20033;-70
2022/06/21 06:24:28;;;;;;;;;;;17.30;95.90;;;;;;4966858;28;19930;-70
2022/06/21 06:27:02;;;;;;;;;;;17.40;96.20;;;;;;4954614;28;19922;-70
2022/06/21 06:29:36;;;;;;;;;;;17.40;95.30;;;;;;4949394;29;19922;-70
2022/06/21 06:32:11;;;;;;;;;;;17.40;95.40;;;;;;4951271;28;19923;-71
2022/06/21 06:34:44;;;;;;;;;;;17.50;95.70;;;;;;4950411;28;19926;-69
2022/06/21 06:37:36;;;;;;;;;;;17.50;95.20;;;;;;4951173;28;19923;-70
2022/06/21 06:40:23;;;;;;;;;;;17.50;95.20;;;;;;4951822;29;19922;-70
2022/06/21 06:42:58;;;;;;;;;;;17.50;95.10;;;;;;4949924;28;19961;-70
2022/06/21 06:45:35;;;;;;;;;;;17.60;95.10;;;;;;4965999;28;20144;-69
2022/06/21 06:48:12;;;;;;;;;;;17.60;95.20;;;;;;4951577;28;20615;-69
2022/06/21 06:50:46;;;;;;;;;;;17.70;95.20;;;;;;4949021;28;19948;-69
2022/06/21 06:53:33;;;;;;;;;;;17.70;95.10;;;;;;4951683;28;19926;-69
2022/06/21 06:56:08;;;;;;;;;;;17.80;95.00;;;;;;4949712;28;19926;-69
2022/06/21 06:58:43;;;;;;;;;;;17.90;94.50;;;;;;4965891;28;19926;-70
2022/06/21 07:01:17;;;;;;;;;;;17.90;94.00;;;;;;4952339;28;19922;-69
2022/06/21 07:03:57;;;;;;;;;;;17.90;93.60;;;;;;4952066;28;19929;-69
2022/06/21 07:06:31;;;;;;;;;;;18.00;93.50;;;;;;4948251;29;19923;-70
2022/06/21 07:09:08;;;;;;;;;;;18.10;93.20;;;;;;4950533;28;19929;-70
2022/06/21 07:11:40;;;;;;;;;;;18.10;92.90;;;;;;4952168;28;19926;-71
2022/06/21 07:14:14;;;;;;;;;;;18.20;93.10;;;;;;4951526;28;19927;-70
2022/06/21 07:16:47;;;;;;;;;;;18.30;93.00;;;;;;4964424;28;20302;-70
2022/06/21 07:19:18;;;;;;;;;;;18.30;92.50;;;;;;4967361;28;19923;-70
2022/06/21 07:21:50;;;;;;;;;;;18.40;93.20;;;;;;4952196;29;19930;-69
2022/06/21 07:24:22;;;;;;;;;;;18.50;93.60;;;;;;4967757;28;19926;-70
2022/06/21 07:26:59;;;;;;;;;;;18.60;93.10;;;;;;4953242;29;20544;-70
2022/06/21 07:29:49;;;;;;;;;;;18.70;92.80;;;;;;4968477;28;20457;-70
2022/06/21 07:32:24;;;;;;;;;;;18.70;93.00;;;;;;4955663;28;19926;-70
2022/06/21 07:35:05;;;;;;;;;;;18.90;93.20;;;;;;4951879;29;20049;-70
2022/06/21 07:37:58;;;;;;;;;;;18.90;93.00;;;;;;4951855;28;20498;-70
2022/06/21 07:40:35;;;;;;;;;;;19.00;92.60;;;;;;4957317;28;19926;-70
2022/06/21 07:43:06;;;;;;;;;;;19.10;92.70;;;;;;4955539;28;19968;-70
2022/06/21 07:45:58;;;;;;;;;;;19.20;92.30;;;;;;4954112;28;19933;-70
2022/06/21 07:48:45;;;;;;;;;;;19.20;91.50;;;;;;4953508;28;19922;-70
2022/06/21 07:51:19;;;;;;;;;;;19.30;91.50;;;;;;4953979;29;19933;-70
2022/06/21 07:54:03;;;;;;;;;;;19.40;91.40;;;;;;4943257;28;19981;-70
2022/06/21 07:56:43;;;;;;;;;;;19.40;91.10;;;;;;4942194;29;20001;-71
2022/06/21 07:59:21;;;;;;;;;;;19.50;92.00;;;;;;4951553;28;19922;-70
2022/06/21 08:08:23;;;;;;;;;;;20.00;91.70;;;;;;4949548;28;19933;-71
2022/06/21 08:11:07;;;;;;;;;;;20.20;91.10;;;;;;4952670;28;19923;-71
2022/06/21 08:13:40;;;;;;;;;;;20.30;91.30;;;;;;4969364;28;19929;-71
2022/06/21 08:16:16;;;;;;;;;;;20.40;91.50;;;;;;4965205;28;19929;-71
2022/06/21 08:18:53;;;;;;;;;;;20.30;91.00;;;;;;4954333;28;19930;-71
2022/06/21 08:21:29;;;;;;;;;;;20.20;90.80;;;;;;4964138;28;19957;-71
2022/06/21 08:24:10;;;;;;;;;;;20.20;91.80;;;;;;4954480;28;19932;-71
2022/06/21 08:26:45;;;;;;;;;;;20.10;91.40;;;;;;4953472;28;19929;-71
2022/06/21 08:29:28;;;;;;;;;;;20.00;91.90;;;;;;4952018;28;19922;-71
2022/06/21 08:32:07;;;;;;;;;;;20.00;91.40;;;;;;4953445;28;20290;-70
2022/06/21 08:34:46;;;;;;;;;;;20.10;92.10;;;;;;4952356;29;19929;-71
2022/06/21 08:37:24;;;;;;;;;;;20.20;91.80;;;;;;4951625;29;19926;-71
2022/06/21 08:39:59;;;;;;;;;;;20.30;91.70;;;;;;4957482;28;19927;-71
2022/06/21 08:42:46;;;;;;;;;;;20.20;92.20;;;;;;4954519;28;20405;-71
2022/06/21 08:45:43;;;;;;;;;;;20.30;91.80;;;;;;4955931;28;19926;-70
2022/06/21 08:48:37;;;;;;;;;;;20.40;91.90;;;;;;4963162;28;20386;-71
2022/06/21 08:51:30;;;;;;;;;;;20.40;91.80;;;;;;4951685;28;19926;-71
2022/06/21 08:54:11;;;;;;;;;;;20.50;91.60;;;;;;4953450;28;20039;-71
2022/06/21 08:56:56;;;;;;;;;;;20.60;92.30;;;;;;4967377;28;19929;-71
2022/06/21 08:59:25;;;;;;;;;;;20.70;91.60;;;;;;4970814;28;19926;-71
2022/06/21 09:02:16;;;;;;;;;;;20.90;91.40;;;;;;4953456;28;19929;-71
2022/06/21 09:05:06;;;;;;;;;;;21.00;91.50;;;;;;4934971;29;19930;-71
2022/06/21 09:07:53;;;;;;;;;;;20.80;92.00;;;;;;4949445;29;19930;-71
2022/06/21 09:10:40;;;;;;;;;;;20.80;92.60;;;;;;4951758;28;20033;-71
2022/06/21 09:13:19;;;;;;;;;;;20.80;92.50;;;;;;4953319;28;19933;-71
2022/06/21 09:15:54;;;;;;;;;;;20.80;92.20;;;;;;4952958;28;19930;-71
2022/06/21 09:18:28;;;;;;;;;;;20.90;92.20;;;;;;4968052;28;20307;-71
2022/06/21 09:21:05;;;;;;;;;;;20.90;92.60;;;;;;4951240;29;20375;-71
2022/06/21 09:23:55;;;;;;;;;;;20.90;92.80;;;;;;4966195;28;19929;-71
2022/06/21 09:26:33;;;;;;;;;;;21.00;92.50;;;;;;4952479;28;19922;-71
2022/06/21 09:29:26;;;;;;;;;;;21.10;92.40;;;;;;4949827;29;19926;-71
2022/06/21 09:32:11;;;;;;;;;;;21.20;92.40;;;;;;4966233;28;20311;-71
2022/06/21 09:34:59;;;;;;;;;;;21.40;92.70;;;;;;4951810;28;19929;-71
2022/06/21 09:37:45;;;;;;;;;;;21.50;92.20;;;;;;4948656;28;19926;-71
2022/06/21 09:40:22;;;;;;;;;;;21.60;92.50;;;;;;4944679;29;19957;-71
2022/06/21 09:42:53;;;;;;;;;;;21.70;93.70;;;;;;4952502;28;19926;-71
2022/06/21 09:45:37;;;;;;;;;;;22.00;93.40;;;;;;4958878;28;19930;-71
2022/06/21 09:48:15;;;;;;;;;;;22.10;92.50;;;;;;4949147;28;20433;-71
2022/06/21 09:50:52;;;;;;;;;;;22.30;92.50;;;;;;4936450;28;20315;-71
2022/06/21 09:53:27;;;;;;;;;;;22.30;92.50;;;;;;4947558;29;20018;-71
2022/06/21 09:56:11;;;;;;;;;;;22.40;93.20;;;;;;4962252;28;20743;-71
2022/06/21 09:58:55;;;;;;;;;;;22.40;93.40;;;;;;4954109;28;19922;-71
2022/06/21 10:01:40;;;;;;;;;;;22.50;93.50;;;;;;4948162;29;19923;-71
2022/06/21 10:04:28;;;;;;;;;;;22.70;93.90;;;;;;4948584;29;20644;-71
2022/06/21 10:06:59;;;;;;;;;;;22.70;92.20;;;;;;4950294;28;19927;-71
2022/06/21 10:09:49;;;;;;;;;;;22.80;93.30;;;;;;4950210;28;19945;-71
2022/06/21 10:12:30;;;;;;;;;;;22.90;93.10;;;;;;4951295;29;19922;-71
2022/06/21 10:15:11;;;;;;;;;;;23.00;92.90;;;;;;4950412;28;19932;-71
2022/06/21 10:18:02;;;;;;;;;;;23.00;93.30;;;;;;4949278;29;19928;-71
2022/06/21 10:20:46;;;;;;;;;;;23.10;92.90;;;;;;4947322;29;19926;-71
2022/06/21 10:23:22;;;;;;;;;;;23.20;92.70;;;;;;4951813;29;19922;-71
2022/06/21 10:25:56;;;;;;;;;;;23.10;92.30;;;;;;4951507;28;19930;-71
2022/06/21 10:28:28;;;;;;;;;;;22.90;93.80;;;;;;4954695;28;19926;-71
2022/06/21 10:31:05;;;;;;;;;;;23.10;93.80;;;;;;4952454;28;19922;-71
2022/06/21 10:33:36;;;;;;;;;;;23.10;93.00;;;;;;4951461;28;19926;-71
2022/06/21 10:36:11;;;;;;;;;;;23.20;92.90;;;;;;4953315;28;20021;-71
2022/06/21 10:38:58;;;;;;;;;;;23.40;93.50;;;;;;4960423;28;19930;-72
2022/06/21 10:44:45;;;;;;;;;;;23.40;93.70;;;;;;4946848;29;20288;-71
2022/06/21 10:47:24;;;;;;;;;;;23.50;93.40;;;;;;4950052;28;20017;-68
2022/06/21 10:50:02;;;;;;;;;;;23.50;92.60;;;;;;4949667;28;19926;-69
2022/06/21 10:52:40;;;;;;;;;;;23.60;93.40;;;;;;4956106;28;19926;-69
2022/06/21 10:55:27;;;;;;;;;;;23.70;93.40;;;;;;4952971;29;19929;-68
2022/06/21 10:58:03;;;;;;;;;;;24.00;93.50;;;;;;4953305;28;19933;-69
2022/06/21 11:04:02;;;;;;;;;;;24.10;93.20;;;;;;4952264;29;19933;-68
2022/06/21 11:06:39;;;;;;;;;;;24.10;93.40;;;;;;4951611;29;20025;-68
2022/06/21 11:09:16;;;;;;;;;;;24.00;92.90;;;;;;4952012;28;20017;-69
2022/06/21 11:11:49;;;;;;;;;;;23.80;94.20;;;;;;4951744;29;19929;-69
2022/06/21 11:14:27;;;;;;;;;;;23.90;93.80;;;;;;4957375;28;19930;-69
2022/06/21 11:17:17;;;;;;;;;;;24.10;93.40;;;;;;4950025;28;19926;-69
2022/06/21 11:20:07;;;;;;;;;;;24.30;93.50;;;;;;4966188;28;19937;-69
2022/06/21 11:22:39;;;;;;;;;;;24.50;93.40;;;;;;4950566;28;19930;-69
2022/06/21 11:25:23;;;;;;;;;;;24.70;93.00;;;;;;4953976;28;19941;-69
2022/06/21 11:27:58;;;;;;;;;;;24.90;92.80;;;;;;4949345;28;19941;-69
2022/06/21 11:30:45;;;;;;;;;;;25.20;93.10;;;;;;4951854;28;20291;-69
2022/06/21 11:33:35;;;;;;;;;;;25.20;92.40;;;;;;4951826;28;19924;-69
2022/06/21 11:36:12;;;;;;;;;;;25.30;92.20;;;;;;4943060;29;19931;-69
2022/06/21 11:38:52;;;;;;;;;;;25.30;91.80;;;;;;4950479;28;19942;-69
2022/06/21 11:44:33;;;;;;;;;;;25.50;92.00;;;;;;4951268;28;20477;-69
2022/06/21 11:47:24;;;;;;;;;;;25.40;92.30;;;;;;4951079;28;19922;-68
2022/06/21 11:49:55;;;;;;;;;;;25.40;92.30;;;;;;4949131;28;19926;-69
2022/06/21 11:52:31;;;;;;;;;;;25.60;92.40;;;;;;4952555;28;20017;-69
2022/06/21 11:55:12;;;;;;;;;;;26.00;92.10;;;;;;4949054;29;20474;-69
2022/06/21 11:57:48;;;;;;;;;;;26.00;91.00;;;;;;4948854;28;19923;-69
2022/06/21 12:00:25;;;;;;;;;;;26.10;91.80;;;;;;4951694;28;20033;-69
2022/06/21 12:02:58;;;;;;;;;;;25.90;91.40;;;;;;4950342;28;20298;-69
2022/06/21 12:05:33;;;;;;;;;;;25.70;92.30;;;;;;4950080;29;19941;-69
2022/06/21 12:08:29;;;;;;;;;;;25.70;92.40;;;;;;4950120;28;19933;-69
2022/06/21 12:11:12;;;;;;;;;;;25.80;91.80;;;;;;4953498;29;19928;-69
2022/06/21 12:13:56;;;;;;;;;;;26.00;92.40;;;;;;4952468;29;20380;-69
2022/06/21 12:16:38;;;;;;;;;;;26.20;92.10;;;;;;4952098;28;19929;-69
2022/06/21 12:19:16;;;;;;;;;;;26.30;91.80;;;;;;4953505;29;20407;-69
2022/06/21 12:21:54;;;;;;;;;;;26.40;91.40;;;;;;4952870;29;19929;-69
2022/06/21 12:24:27;;;;;;;;;;;26.50;91.60;;;;;;4951957;28;19930;-69
2022/06/21 12:26:59;;;;;;;;;;;26.50;91.40;;;;;;4951853;28;19933;-69
2022/06/21 12:29:30;;;;;;;;;;;26.60;91.60;;;;;;4950350;28;19930;-69
2022/06/21 12:32:03;;;;;;;;;;;26.70;90.80;;;;;;4949069;28;20306;-69
2022/06/21 12:34:40;;;;;;;;;;;26.90;91.10;;;;;;4951500;28;19933;-69
2022/06/21 12:37:13;;;;;;;;;;;26.90;90.60;;;;;;4949894;28;19922;-69
2022/06/21 12:40:04;;;;;;;;;;;27.10;90.40;;;;;;4950608;28;20362;-69
2022/06/21 12:42:49;;;;;;;;;;;27.10;90.20;;;;;;4951669;28;19926;-69
2022/06/21 12:45:23;;;;;;;;;;;27.20;90.60;;;;;;4950794;28;19933;-69
2022/06/21 12:48:05;;;;;;;;;;;27.30;90.60;;;;;;4950571;28;19930;-69
2022/06/21 12:50:44;;;;;;;;;;;27.40;90.10;;;;;;4951397;29;20330;-69
2022/06/21 12:53:19;;;;;;;;;;;27.40;90.20;;;;;;4950235;28;19926;-69
2022/06/21 12:56:03;;;;;;;;;;;27.60;90.30;;;;;;4950012;28;19926;-69
2022/06/21 12:58:35;;;;;;;;;;;27.80;89.60;;;;;;4948852;29;19922;-69
2022/06/21 13:01:17;;;;;;;;;;;28.00;89.60;;;;;;4951286;28;19922;-69
2022/06/21 13:03:49;;;;;;;;;;;28.10;90.00;;;;;;4959302;28;20000;-69
2022/06/21 13:06:29;;;;;;;;;;;28.10;86.70;;;;;;4950446;28;20398;-69
2022/06/21 13:09:10;;;;;;;;;;;28.20;88.00;;;;;;4949502;28;19930;-69
2022/06/21 13:11:57;;;;;;;;;;;28.20;87.40;;;;;;4951304;28;19926;-69
2022/06/21 13:14:38;;;;;;;;;;;28.20;87.60;;;;;;4958392;28;19933;-69
2022/06/21 13:17:13;;;;;;;;;;;28.30;88.70;;;;;;4963627;28;19930;-69
2022/06/21 13:19:47;;;;;;;;;;;28.50;86.70;;;;;;4947826;28;19957;-69
2022/06/21 13:22:25;;;;;;;;;;;28.60;86.20;;;;;;4949575;28;19922;-69
2022/06/21 13:25:00;;;;;;;;;;;28.80;85.50;;;;;;4950069;28;19926;-69
2022/06/21 13:27:32;;;;;;;;;;;28.90;86.10;;;;;;4947346;29;19926;-69
2022/06/21 13:30:06;;;;;;;;;;;28.90;84.40;;;;;;4949572;28;20026;-69
2022/06/21 13:32:45;;;;;;;;;;;29.00;84.90;;;;;;4950178;29;19927;-69
2022/06/21 13:35:22;;;;;;;;;;;29.20;85.90;;;;;;4948735;29;20028;-69
2022/06/21 13:38:11;;;;;;;;;;;29.30;85.30;;;;;;4947010;29;19932;-69
2022/06/21 13:40:46;;;;;;;;;;;29.10;84.20;;;;;;4949458;28;20052;-70
2022/06/21 13:43:38;;;;;;;;;;;29.30;85.20;;;;;;4944733;29;19929;-70
2022/06/21 13:46:14;;;;;;;;;;;29.60;84.60;;;;;;4947670;28;19937;-70
2022/06/21 13:48:59;;;;;;;;;;;29.60;83.70;;;;;;4961457;28;19926;-70
2022/06/21 13:51:35;;;;;;;;;;;29.60;83.20;;;;;;4947762;28;20037;-70
2022/06/21 13:54:26;;;;;;;;;;;29.70;84.10;;;;;;4949398;28;20382;-71
2022/06/21 13:56:56;;;;;;;;;;;30.00;82.60;;;;;;4964330;28;19926;-70
2022/06/21 13:59:28;;;;;;;;;;;29.50;81.20;;;;;;4949414;29;19929;-71
2022/06/21 14:02:11;;;;;;;;;;;29.70;82.50;;;;;;4949287;29;19987;-70
2022/06/21 14:05:12;;;;;;;;;;;29.90;83.80;;;;;;4945145;29;19930;-70
2022/06/21 14:07:51;;;;;;;;;;;30.10;81.70;;;;;;4944881;28;20405;-72
2022/06/21 14:10:27;;;;;;;;;;;30.40;81.50;;;;;;4950714;29;20002;-70
2022/06/21 14:13:02;;;;;;;;;;;30.70;81.20;;;;;;4947811;28;20013;-70
2022/06/21 14:15:40;;;;;;;;;;;30.80;79.80;;;;;;4947372;28;19930;-72
2022/06/21 14:18:11;;;;;;;;;;;31.00;79.20;;;;;;4946524;29;19927;-70
2022/06/21 14:20:43;;;;;;;;;;;31.00;81.20;;;;;;4950570;28;19978;-70
2022/06/21 14:23:18;;;;;;;;;;;31.10;79.80;;;;;;4951302;28;19930;-71
2022/06/21 14:25:59;;;;;;;;;;;31.40;80.20;;;;;;4947024;28;19926;-71
2022/06/21 14:28:33;;;;;;;;;;;31.30;78.60;;;;;;4952023;29;19922;-73
2022/06/21 14:31:26;;;;;;;;;;;31.20;79.30;;;;;;4950149;28;19926;-70
2022/06/21 14:34:02;;;;;;;;;;;31.10;79.80;;;;;;4951983;29;19926;-71
2022/06/21 14:36:46;;;;;;;;;;;31.00;78.30;;;;;;4951540;28;19956;-71
2022/06/21 14:39:37;;;;;;;;;;;31.00;79.10;;;;;;4951996;28;19926;-70
2022/06/21 14:42:21;;;;;;;;;;;30.90;79.00;;;;;;4953499;28;20323;-71
2022/06/21 14:45:12;;;;;;;;;;;31.10;78.40;;;;;;4951714;28;19973;-70
2022/06/21 14:47:43;;;;;;;;;;;31.20;78.10;;;;;;4951651;29;19950;-70
2022/06/21 14:50:21;;;;;;;;;;;31.50;77.40;;;;;;4950485;29;20021;-70
2022/06/21 14:53:14;;;;;;;;;;;31.70;76.50;;;;;;4952680;29;20021;-71
2022/06/21 14:56:03;;;;;;;;;;;32.10;75.80;;;;;;4950763;29;19985;-70
2022/06/21 14:59:13;;;;;;;;;;;32.10;74.60;;;;;;4952310;28;19953;-70
2022/06/21 15:01:45;;;;;;;;;;;32.30;74.80;;;;;;4935371;29;20067;-70
2022/06/21 15:04:31;;;;;;;;;;;32.50;73.00;;;;;;4915959;29;19931;-70
2022/06/21 15:07:02;;;;;;;;;;;32.70;74.00;;;;;;4970831;28;19922;-70
2022/06/21 15:09:43;;;;;;;;;;;32.80;72.90;;;;;;4956804;28;20391;-70
2022/06/21 15:12:17;;;;;;;;;;;32.90;72.20;;;;;;4959219;28;19922;-71
2022/06/21 15:14:51;;;;;;;;;;;32.90;71.10;;;;;;4958295;28;19922;-70
2022/06/21 15:17:41;;;;;;;;;;;33.10;71.50;;;;;;4956722;28;20028;-71
2022/06/21 15:20:19;;;;;;;;;;;33.20;70.20;;;;;;4953906;28;20020;-71
2022/06/21 15:22:54;;;;;;;;;;;33.40;70.30;;;;;;4954397;29;19922;-71
2022/06/21 15:25:44;;;;;;;;;;;33.30;69.70;;;;;;4952061;28;20391;-71
2022/06/21 15:28:31;;;;;;;;;;;33.40;68.90;;;;;;4954657;29;19929;-71
2022/06/21 15:31:09;;;;;;;;;;;33.30;68.70;;;;;;4955931;28;19929;-71
2022/06/21 15:33:53;;;;;;;;;;;33.40;69.30;;;;;;4954597;28;20020;-71
2022/06/21 15:36:43;;;;;;;;;;;33.70;68.00;;;;;;4951004;28;19926;-71
2022/06/21 15:39:32;;;;;;;;;;;33.80;67.20;;;;;;4951876;28;20426;-71